Time;durP1;ratioP1;P1;durP2;ratioP2;P2;SDS_P1;SDS_P2;PMS_P1;PMS_P2;Temp;Humidity;BMP_temperature;BMP_pressure;BME280_temperature;BME280_humidity;BME280_pressure;Samples;Min_cycle;Max_cycle;Signal;HPM_P1;HPM_P2
2021/08/12 00:01:14;;;;;;;15.57;9.70;;;19.00;99.90;;;;;;4989914;28;20908;-61
2021/08/12 00:03:40;;;;;;;16.97;9.83;;;18.90;99.90;;;;;;4989556;28;20906;-62
2021/08/12 00:06:05;;;;;;;16.90;9.80;;;18.90;99.90;;;;;;4990119;28;20758;-61
2021/08/12 00:08:31;;;;;;;16.00;9.43;;;19.00;99.90;;;;;;4989478;28;20437;-61
2021/08/12 00:10:57;;;;;;;14.27;9.57;;;18.90;99.90;;;;;;4989601;28;20395;-61
2021/08/12 00:13:23;;;;;;;12.02;7.80;;;19.00;99.90;;;;;;4988845;28;20440;-58
2021/08/12 00:15:49;;;;;;;13.27;9.10;;;18.90;99.90;;;;;;4989896;28;20887;-61
2021/08/12 00:18:15;;;;;;;13.30;8.60;;;18.90;99.90;;;;;;4990107;28;20509;-61
2021/08/12 00:20:40;;;;;;;14.43;8.30;;;18.90;99.90;;;;;;4989064;28;20971;-62
2021/08/12 00:23:06;;;;;;;17.30;9.90;;;18.90;99.90;;;;;;4989867;28;20518;-61
2021/08/12 00:25:32;;;;;;;13.88;9.85;;;18.80;99.90;;;;;;4989231;28;20476;-65
2021/08/12 00:27:57;;;;;;;13.00;9.00;;;18.60;99.90;;;;;;4989795;28;20398;-61
2021/08/12 00:30:23;;;;;;;14.37;9.50;;;18.70;99.90;;;;;;4988293;28;20395;-58
2021/08/12 00:32:49;;;;;;;12.53;9.30;;;18.70;99.90;;;;;;4972425;28;20398;-60
2021/08/12 00:35:14;;;;;;;15.20;9.68;;;18.70;99.90;;;;;;4989732;28;20378;-61
2021/08/12 00:37:40;;;;;;;14.80;9.20;;;18.60;99.90;;;;;;4989139;28;20556;-61
2021/08/12 00:40:06;;;;;;;14.88;9.85;;;18.60;99.90;;;;;;4972410;28;20390;-61
2021/08/12 00:42:32;;;;;;;14.23;8.85;;;18.60;99.90;;;;;;4989406;28;20390;-60
2021/08/12 00:44:58;;;;;;;14.10;9.68;;;18.70;99.90;;;;;;4989621;28;20764;-61
2021/08/12 00:47:23;;;;;;;14.93;9.38;;;18.70;99.90;;;;;;4989384;28;20426;-58
2021/08/12 00:49:49;;;;;;;15.00;9.40;;;18.70;99.90;;;;;;4989484;28;20394;-62
2021/08/12 00:52:15;;;;;;;14.23;9.40;;;18.70;99.90;;;;;;4989999;28;20402;-62
2021/08/12 00:54:41;;;;;;;14.95;9.48;;;18.60;99.90;;;;;;4989407;28;20389;-62
2021/08/12 00:57:08;;;;;;;13.77;10.15;;;18.50;99.90;;;;;;4983482;28;20444;-61
2021/08/12 00:59:37;;;;;;;15.40;9.97;;;18.30;99.90;;;;;;4974998;28;20879;-62
2021/08/12 01:02:10;;;;;;;14.85;9.43;;;18.30;99.90;;;;;;4984432;28;20429;-61
2021/08/12 01:04:44;;;;;;;14.63;10.03;;;18.30;99.90;;;;;;4980787;28;20437;-62
2021/08/12 01:07:11;;;;;;;16.40;9.15;;;18.30;99.90;;;;;;4989632;28;20500;-61
2021/08/12 01:09:52;;;;;;;14.85;9.80;;;18.30;99.90;;;;;;4988513;28;20473;-61
2021/08/12 01:12:27;;;;;;;17.38;10.35;;;18.20;99.90;;;;;;4986735;28;20924;-61
2021/08/12 01:15:07;;;;;;;16.58;9.68;;;18.20;99.90;;;;;;4979434;28;20385;-61
2021/08/12 01:17:44;;;;;;;15.80;9.70;;;18.20;99.90;;;;;;4982192;28;20418;-61
2021/08/12 01:20:24;;;;;;;14.85;9.02;;;18.10;99.90;;;;;;4989263;28;20390;-63
2021/08/12 01:22:53;;;;;;;17.60;10.37;;;18.10;99.90;;;;;;4990180;28;20393;-62
2021/08/12 01:25:25;;;;;;;15.32;10.05;;;18.10;99.90;;;;;;4993062;28;20472;-61
2021/08/12 01:27:54;;;;;;;14.55;9.95;;;18.20;99.90;;;;;;4993028;28;20494;-61
2021/08/12 01:30:25;;;;;;;13.68;9.30;;;18.10;99.90;;;;;;4992899;28;20382;-61
2021/08/12 01:33:09;;;;;;;13.00;8.98;;;18.10;99.90;;;;;;4992522;28;20481;-61
2021/08/12 01:35:38;;;;;;;17.67;10.00;;;18.00;99.90;;;;;;4992096;28;20433;-60
2021/08/12 01:38:15;;;;;;;13.27;8.48;;;17.90;99.90;;;;;;4992435;28;20847;-61
2021/08/12 01:40:41;;;;;;;14.00;8.95;;;17.90;99.90;;;;;;4992063;28;20744;-61
2021/08/12 01:43:15;;;;;;;14.88;9.20;;;17.90;99.90;;;;;;4992102;28;20441;-60
2021/08/12 01:45:41;;;;;;;13.48;9.07;;;17.80;99.90;;;;;;4991978;28;20473;-61
2021/08/12 01:48:08;;;;;;;15.82;10.35;;;17.80;99.90;;;;;;4974720;28;20777;-60
2021/08/12 01:50:35;;;;;;;18.10;10.00;;;17.80;99.90;;;;;;4974105;28;20874;-60
2021/08/12 01:53:02;;;;;;;15.05;9.82;;;17.80;99.90;;;;;;4992331;28;20379;-61
2021/08/12 01:55:31;;;;;;;15.15;9.65;;;17.80;99.90;;;;;;4991705;28;20436;-58
2021/08/12 01:57:59;;;;;;;13.68;9.50;;;17.80;99.90;;;;;;4992078;28;20414;-61
2021/08/12 02:00:28;;;;;;;14.60;9.30;;;17.90;99.90;;;;;;4992318;28;20481;-60
2021/08/12 02:02:55;;;;;;;13.75;9.68;;;17.90;99.90;;;;;;4991994;28;20387;-61
2021/08/12 02:05:21;;;;;;;15.85;8.85;;;17.80;99.90;;;;;;4992175;28;20461;-61
2021/08/12 02:07:48;;;;;;;13.90;9.67;;;17.80;99.90;;;;;;4991336;28;20383;-61
2021/08/12 02:10:15;;;;;;;13.30;9.03;;;17.70;99.90;;;;;;4992171;28;20398;-61
2021/08/12 02:12:41;;;;;;;15.20;9.00;;;17.70;99.90;;;;;;4991464;28;20386;-61
2021/08/12 02:15:08;;;;;;;14.50;9.95;;;17.80;99.90;;;;;;4991988;28;20489;-61
2021/08/12 02:17:34;;;;;;;17.70;11.77;;;17.80;99.90;;;;;;4991057;28;20419;-61
2021/08/12 02:20:20;;;;;;;16.93;11.60;;;17.80;99.90;;;;;;4991952;28;20904;-61
2021/08/12 02:22:56;;;;;;;16.10;10.50;;;17.80;99.90;;;;;;4990790;28;20422;-61
2021/08/12 02:25:36;;;;;;;14.98;9.98;;;17.90;99.90;;;;;;4991460;28;20414;-61
2021/08/12 02:28:07;;;;;;;16.27;10.95;;;17.90;99.90;;;;;;4991896;28;20825;-61
2021/08/12 02:30:43;;;;;;;17.15;11.38;;;17.80;99.90;;;;;;4990862;28;20390;-61
2021/08/12 02:33:14;;;;;;;14.10;10.13;;;17.80;99.90;;;;;;4991545;28;20398;-61
2021/08/12 02:35:41;;;;;;;16.55;9.77;;;17.80;99.90;;;;;;4990382;28;20464;-61
2021/08/12 02:38:10;;;;;;;18.10;11.93;;;17.80;99.90;;;;;;4991408;28;20411;-60
2021/08/12 02:40:37;;;;;;;16.40;10.57;;;17.70;99.90;;;;;;4990843;28;20390;-60
2021/08/12 02:43:03;;;;;;;17.25;10.80;;;17.70;99.90;;;;;;4990392;28;20478;-60
2021/08/12 02:45:30;;;;;;;16.48;12.45;;;17.70;99.90;;;;;;4991250;28;20379;-57
2021/08/12 02:47:56;;;;;;;17.23;11.40;;;17.70;99.90;;;;;;4991625;28;20410;-61
2021/08/12 02:50:24;;;;;;;16.73;12.00;;;17.70;99.90;;;;;;4991284;28;20411;-60
2021/08/12 02:52:50;;;;;;;18.58;12.18;;;17.70;99.90;;;;;;4991216;28;20382;-60
2021/08/12 02:55:17;;;;;;;17.38;12.80;;;17.60;99.90;;;;;;4991605;28;20390;-60
2021/08/12 02:57:43;;;;;;;16.58;11.85;;;17.60;99.90;;;;;;4990314;28;20465;-59
2021/08/12 03:00:09;;;;;;;18.77;12.85;;;17.60;99.90;;;;;;4991203;28;20383;-60
2021/08/12 03:02:36;;;;;;;18.85;11.75;;;17.60;99.90;;;;;;4990487;28;20415;-59
2021/08/12 03:05:03;;;;;;;18.40;11.50;;;17.70;99.90;;;;;;4990974;28;20537;-60
2021/08/12 03:07:30;;;;;;;18.75;11.63;;;17.60;99.90;;;;;;4990725;28;20398;-57
2021/08/12 03:09:59;;;;;;;17.98;11.35;;;17.70;99.90;;;;;;4991107;28;20918;-61
2021/08/12 03:12:25;;;;;;;18.17;12.00;;;17.60;99.90;;;;;;4991110;28;20390;-59
2021/08/12 03:14:52;;;;;;;16.33;11.18;;;17.60;99.90;;;;;;4990297;28;20378;-60
2021/08/12 03:17:23;;;;;;;17.20;10.30;;;17.50;99.90;;;;;;4990682;28;20418;-60
2021/08/12 03:19:50;;;;;;;18.03;12.13;;;17.50;99.90;;;;;;4989744;28;20467;-60
2021/08/12 03:22:16;;;;;;;17.60;11.57;;;17.50;99.90;;;;;;4990888;28;20401;-60
2021/08/12 03:24:46;;;;;;;18.40;11.88;;;17.60;99.90;;;;;;4989630;28;20382;-60
2021/08/12 03:27:15;;;;;;;19.10;11.30;;;17.60;99.90;;;;;;4990713;28;20390;-60
2021/08/12 03:29:43;;;;;;;16.70;10.88;;;17.70;99.90;;;;;;4989763;28;20826;-62
2021/08/12 03:32:09;;;;;;;18.45;11.60;;;17.60;99.90;;;;;;4973408;28;20468;-59
2021/08/12 03:34:35;;;;;;;17.83;10.75;;;17.70;99.90;;;;;;4970360;28;20384;-59
2021/08/12 03:37:01;;;;;;;16.30;11.25;;;17.60;99.90;;;;;;4970753;28;20411;-60
2021/08/12 03:39:27;;;;;;;15.73;11.23;;;17.60;99.90;;;;;;4970878;28;20396;-60
2021/08/12 03:41:53;;;;;;;15.30;10.15;;;17.60;99.90;;;;;;4969499;28;20399;-60
2021/08/12 03:44:19;;;;;;;15.80;11.73;;;17.60;99.90;;;;;;4970925;28;20396;-60
2021/08/12 03:46:45;;;;;;;17.88;11.07;;;17.60;99.90;;;;;;4969136;28;20463;-61
2021/08/12 03:49:10;;;;;;;16.30;10.60;;;17.60;99.90;;;;;;4971211;28;20471;-61
2021/08/12 03:51:36;;;;;;;14.90;10.05;;;17.60;99.90;;;;;;4952230;28;20962;-60
2021/08/12 03:54:02;;;;;;;18.30;11.38;;;17.60;99.90;;;;;;4970636;28;20399;-61
2021/08/12 03:56:27;;;;;;;17.60;11.47;;;17.60;99.90;;;;;;4970779;28;20452;-61
2021/08/12 03:58:53;;;;;;;18.20;11.07;;;17.60;99.90;;;;;;4968416;28;20394;-61
2021/08/12 04:01:19;;;;;;;16.50;11.10;;;17.70;99.90;;;;;;4970943;28;20414;-61
2021/08/12 04:03:44;;;;;;;16.40;10.60;;;17.60;99.90;;;;;;4969614;28;20429;-60
2021/08/12 04:06:12;;;;;;;18.17;11.07;;;17.50;99.90;;;;;;4970815;28;20391;-61
2021/08/12 04:08:40;;;;;;;18.45;12.40;;;17.40;99.90;;;;;;4970022;28;20392;-61
2021/08/12 04:11:06;;;;;;;18.80;11.70;;;17.40;99.90;;;;;;4970549;28;20844;-61
2021/08/12 04:13:31;;;;;;;20.83;12.25;;;17.30;99.90;;;;;;4970623;28;20458;-60
2021/08/12 04:15:58;;;;;;;17.02;10.75;;;17.20;99.90;;;;;;4972509;28;20395;-60
2021/08/12 04:18:24;;;;;;;16.30;10.40;;;17.10;99.90;;;;;;4975569;28;20417;-61
2021/08/12 04:20:50;;;;;;;17.00;11.07;;;17.20;99.90;;;;;;4982966;28;20398;-60
2021/08/12 04:23:16;;;;;;;16.65;11.13;;;17.20;99.90;;;;;;4989790;28;20381;-61
2021/08/12 04:25:42;;;;;;;16.70;10.93;;;17.10;99.90;;;;;;4988684;28;20394;-61
2021/08/12 04:28:08;;;;;;;18.75;12.32;;;17.10;99.90;;;;;;4974601;28;20408;-60
2021/08/12 04:30:34;;;;;;;15.83;11.70;;;17.20;99.90;;;;;;4981962;28;20991;-58
2021/08/12 04:33:00;;;;;;;18.75;12.10;;;17.30;99.90;;;;;;4981154;28;20486;-61
2021/08/12 04:35:26;;;;;;;17.10;11.23;;;17.30;99.90;;;;;;4972682;28;20434;-61
2021/08/12 04:37:51;;;;;;;18.33;11.10;;;17.30;99.90;;;;;;4973429;28;20883;-61
2021/08/12 04:40:19;;;;;;;14.77;10.90;;;17.40;99.90;;;;;;4986452;28;20400;-61
2021/08/12 04:42:47;;;;;;;16.13;10.43;;;17.50;99.90;;;;;;4972269;28;20512;-61
2021/08/12 04:45:14;;;;;;;15.07;10.13;;;17.50;99.90;;;;;;4974891;28;20397;-61
2021/08/12 04:47:40;;;;;;;14.07;10.38;;;17.60;99.90;;;;;;4969635;28;20490;-60
2021/08/12 04:50:07;;;;;;;16.10;9.17;;;17.70;99.90;;;;;;4976715;28;20403;-61
2021/08/12 04:52:33;;;;;;;17.50;10.47;;;17.80;99.90;;;;;;4986556;28;20486;-60
2021/08/12 04:54:59;;;;;;;16.17;9.40;;;18.00;99.90;;;;;;4989078;28;20900;-60
2021/08/12 04:57:25;;;;;;;14.98;9.90;;;18.20;99.90;;;;;;4988657;28;20426;-60
2021/08/12 04:59:51;;;;;;;16.73;10.15;;;18.40;99.90;;;;;;4982672;28;21006;-61
2021/08/12 05:02:17;;;;;;;14.93;9.60;;;19.00;99.90;;;;;;4986803;28;20418;-60
2021/08/12 05:04:42;;;;;;;15.77;9.70;;;19.90;99.90;;;;;;4985037;28;20501;-60
2021/08/12 05:07:08;;;;;;;14.73;9.47;;;20.80;99.90;;;;;;4987687;28;20402;-60
2021/08/12 05:09:34;;;;;;;17.37;9.77;;;21.30;99.90;;;;;;4983232;28;20398;-59
2021/08/12 05:12:00;;;;;;;14.32;8.82;;;21.60;99.90;;;;;;4987685;28;20387;-60
2021/08/12 05:14:26;;;;;;;15.73;8.98;;;21.80;99.90;;;;;;4987448;28;20482;-60
2021/08/12 05:16:52;;;;;;;14.90;9.20;;;21.80;99.90;;;;;;4979784;28;20434;-60
2021/08/12 05:19:18;;;;;;;14.23;9.13;;;21.70;99.90;;;;;;4988154;28;20420;-58
2021/08/12 05:21:43;;;;;;;14.52;8.63;;;21.50;99.90;;;;;;4982343;28;20413;-60
2021/08/12 05:24:09;;;;;;;14.20;7.82;;;21.30;99.90;;;;;;4981651;28;20454;-60
2021/08/12 05:26:35;;;;;;;16.65;9.05;;;21.20;99.90;;;;;;4973746;28;20860;-60
2021/08/12 05:29:01;;;;;;;16.87;8.83;;;21.30;99.90;;;;;;4987418;28;20422;-60
2021/08/12 05:31:26;;;;;;;13.77;9.20;;;21.70;99.90;;;;;;4990018;28;20408;-61
2021/08/12 05:33:52;;;;;;;15.13;8.90;;;21.80;99.90;;;;;;4982571;28;20394;-60
2021/08/12 05:36:18;;;;;;;13.98;8.88;;;21.70;99.90;;;;;;4987263;28;20387;-60
2021/08/12 05:38:44;;;;;;;17.67;9.43;;;21.60;99.90;;;;;;4971695;28;20461;-57
2021/08/12 05:41:09;;;;;;;16.03;9.13;;;21.80;99.90;;;;;;4984268;28;20433;-60
2021/08/12 05:43:35;;;;;;;18.50;9.52;;;22.40;99.90;;;;;;4986514;28;20859;-62
2021/08/12 05:46:01;;;;;;;15.00;8.95;;;23.60;99.90;;;;;;4982702;28;20426;-61
2021/08/12 05:48:27;;;;;;;13.90;8.40;;;24.70;99.90;;;;;;4980589;28;20501;-60
2021/08/12 05:50:54;;;;;;;13.52;8.45;;;25.90;99.90;;;;;;4983623;28;20461;-59
2021/08/12 05:53:20;;;;;;;16.08;8.27;;;25.60;99.90;;;;;;4977720;28;20444;-62
2021/08/12 05:55:47;;;;;;;15.15;9.50;;;25.40;99.90;;;;;;4982959;28;20405;-62
2021/08/12 05:58:13;;;;;;;13.45;8.80;;;25.00;99.90;;;;;;4972172;28;20423;-62
2021/08/12 06:00:38;;;;;;;14.82;9.70;;;24.50;99.90;;;;;;4985011;28;20396;-58
2021/08/12 06:03:09;;;;;;;14.48;9.60;;;23.70;99.90;;;;;;4972126;28;20970;-60
2021/08/12 06:05:35;;;;;;;13.57;8.70;;;23.20;99.90;;;;;;4990020;28;20410;-62
2021/08/12 06:08:02;;;;;;;17.00;9.20;;;22.80;99.90;;;;;;4989227;28;20410;-62
2021/08/12 06:10:29;;;;;;;14.60;9.80;;;22.70;99.90;;;;;;4984358;28;20402;-60
2021/08/12 06:12:56;;;;;;;15.40;8.87;;;22.30;99.90;;;;;;4973442;28;20416;-60
2021/08/12 06:15:22;;;;;;;15.47;9.03;;;22.10;99.90;;;;;;4984593;28;20406;-60
2021/08/12 06:17:48;;;;;;;17.80;9.73;;;22.20;99.90;;;;;;4974886;28;20446;-62
2021/08/12 06:20:14;;;;;;;14.73;8.80;;;22.90;99.90;;;;;;4983652;28;20931;-61
2021/08/12 06:22:39;;;;;;;13.88;8.70;;;24.00;99.90;;;;;;4977974;28;20391;-59
2021/08/12 06:25:05;;;;;;;14.80;8.48;;;25.20;99.90;;;;;;4976805;28;20411;-60
2021/08/12 06:27:31;;;;;;;14.15;8.57;;;26.10;99.90;;;;;;4977699;28;20829;-61
2021/08/12 06:29:56;;;;;;;15.35;8.27;;;26.70;99.90;;;;;;4978653;28;20394;-61
2021/08/12 06:32:22;;;;;;;12.70;7.70;;;26.90;99.90;;;;;;4989309;28;20464;-62
2021/08/12 06:34:48;;;;;;;13.63;8.90;;;27.00;99.90;;;;;;4970765;28;20382;-60
2021/08/12 06:37:14;;;;;;;14.17;8.40;;;26.90;99.90;;;;;;4977236;28;20427;-61
2021/08/12 06:39:39;;;;;;;14.30;8.07;;;27.00;99.90;;;;;;4982851;28;20478;-58
2021/08/12 06:42:05;;;;;;;14.53;8.23;;;28.00;99.90;;;;;;4988267;28;20405;-61
2021/08/12 06:44:31;;;;;;;16.30;8.50;;;28.80;99.90;;;;;;4986853;28;20750;-61
2021/08/12 06:46:56;;;;;;;16.03;8.77;;;28.80;99.90;;;;;;4988250;28;20418;-62
2021/08/12 06:49:22;;;;;;;15.97;8.63;;;29.20;99.90;;;;;;4989935;28;20410;-61
2021/08/12 06:51:48;;;;;;;13.90;8.63;;;29.60;99.90;;;;;;4988139;28;20414;-62
2021/08/12 06:54:13;;;;;;;15.23;9.07;;;29.60;99.90;;;;;;4973896;28;20455;-63
2021/08/12 06:56:39;;;;;;;16.30;8.93;;;29.60;99.90;;;;;;4983573;28;20408;-62
2021/08/12 06:59:05;;;;;;;17.08;10.27;;;30.10;99.90;;;;;;4982794;28;20404;-62
2021/08/12 07:01:31;;;;;;;16.88;9.20;;;29.40;99.90;;;;;;4984808;28;20522;-62
2021/08/12 07:03:58;;;;;;;14.73;9.20;;;28.80;99.90;;;;;;4975952;28;20534;-63
2021/08/12 07:06:24;;;;;;;15.23;8.40;;;28.70;99.90;;;;;;4971222;28;20392;-63
2021/08/12 07:08:53;;;;;;;15.02;8.73;;;29.60;99.90;;;;;;4985070;28;20716;-63
2021/08/12 07:11:19;;;;;;;13.55;8.00;;;29.70;99.10;;;;;;4970846;28;20753;-63
2021/08/12 07:13:46;;;;;;;11.77;7.93;;;30.10;98.60;;;;;;4983370;28;21489;-59
2021/08/12 07:16:14;;;;;;;16.00;7.83;;;30.10;98.20;;;;;;4974382;28;20416;-63
2021/08/12 07:18:41;;;;;;;13.70;7.40;;;29.80;98.80;;;;;;4972195;28;20436;-63
2021/08/12 07:21:15;;;;;;;15.68;7.95;;;30.10;98.20;;;;;;4971047;28;20396;-63
2021/08/12 07:23:41;;;;;;;12.85;7.68;;;30.30;97.80;;;;;;4971122;28;20804;-64
2021/08/12 07:26:12;;;;;;;13.13;7.88;;;30.70;97.90;;;;;;4970844;28;20419;-63
2021/08/12 07:28:38;;;;;;;13.57;8.63;;;31.50;96.60;;;;;;4973634;28;20390;-63
2021/08/12 07:31:03;;;;;;;15.63;9.70;;;33.10;92.90;;;;;;4989818;28;21102;-62
2021/08/12 07:33:29;;;;;;;13.77;8.70;;;33.80;91.00;;;;;;4981357;28;20399;-64
2021/08/12 07:35:54;;;;;;;17.02;11.85;;;34.10;87.80;;;;;;4978741;28;20397;-64
2021/08/12 07:38:20;;;;;;;16.97;10.93;;;33.90;88.30;;;;;;4974241;28;20477;-64
2021/08/12 07:40:46;;;;;;;16.50;10.10;;;34.60;84.10;;;;;;4982908;28;20395;-59
2021/08/12 07:43:12;;;;;;;15.48;10.15;;;35.20;81.50;;;;;;4975085;28;20396;-63
2021/08/12 07:45:37;;;;;;;11.20;8.57;;;34.90;79.10;;;;;;4989167;28;20754;-63
2021/08/12 07:48:03;;;;;;;14.63;10.30;;;35.20;76.10;;;;;;4984074;28;20398;-63
2021/08/12 07:50:29;;;;;;;17.33;9.30;;;35.00;76.20;;;;;;4982463;28;20406;-65
2021/08/12 07:52:54;;;;;;;13.17;9.17;;;34.50;76.30;;;;;;4968392;28;20399;-63
2021/08/12 07:55:20;;;;;;;14.23;8.30;;;34.60;75.80;;;;;;4975256;28;20396;-64
2021/08/12 07:57:47;;;;;;;12.50;9.55;;;34.90;76.00;;;;;;4974029;28;20459;-60
2021/08/12 08:00:14;;;;;;;13.65;9.65;;;35.20;74.10;;;;;;4977942;28;20400;-64
2021/08/12 08:02:45;;;;;;;14.52;13.02;;;35.70;71.80;;;;;;4984393;28;20414;-65
2021/08/12 08:05:15;;;;;;;13.20;9.10;;;36.80;66.90;;;;;;4989132;28;20386;-65
2021/08/12 08:07:41;;;;;;;17.73;16.02;;;36.90;65.60;;;;;;4982954;28;20414;-65
2021/08/12 08:10:07;;;;;;;21.60;19.70;;;36.60;64.60;;;;;;4987553;28;20494;-65
2021/08/12 08:12:32;;;;;;;21.50;19.80;;;36.10;65.20;;;;;;4987774;28;20394;-65
2021/08/12 08:14:58;;;;;;;12.47;11.17;;;36.00;64.20;;;;;;4982096;28;20902;-65
2021/08/12 08:17:24;;;;;;;12.38;9.48;;;37.20;62.30;;;;;;4989654;28;20811;-65
2021/08/12 08:19:49;;;;;;;12.60;6.80;;;37.60;59.40;;;;;;4988418;28;20429;-61
2021/08/12 08:22:15;;;;;;;12.20;7.00;;;37.70;59.70;;;;;;4989769;28;20458;-65
2021/08/12 08:24:41;;;;;;;13.27;6.70;;;37.30;59.40;;;;;;4989258;28;20429;-65
2021/08/12 08:27:06;;;;;;;11.57;7.00;;;37.70;58.10;;;;;;4985923;28;20386;-65
2021/08/12 08:29:32;;;;;;;12.93;6.90;;;37.40;58.40;;;;;;4988787;28;20406;-65
2021/08/12 08:31:58;;;;;;;10.95;6.28;;;37.20;59.70;;;;;;4987926;28;20898;-67
2021/08/12 08:34:23;;;;;;;9.67;6.13;;;37.60;58.80;;;;;;4972268;28;20887;-64
2021/08/12 08:36:49;;;;;;;13.33;6.63;;;37.40;58.50;;;;;;4968675;28;20395;-62
2021/08/12 08:39:15;;;;;;;9.38;5.88;;;37.90;56.90;;;;;;4982654;28;20599;-63
2021/08/12 08:41:40;;;;;;;10.00;6.00;;;38.30;56.00;;;;;;4971450;28;20819;-63
2021/08/12 08:44:08;;;;;;;12.80;6.70;;;38.00;56.60;;;;;;4969026;28;20700;-65
2021/08/12 08:46:34;;;;;;;10.35;6.15;;;37.30;58.10;;;;;;4970009;28;20396;-65
2021/08/12 08:49:02;;;;;;;11.30;6.32;;;37.50;55.90;;;;;;4968705;28;20479;-65
2021/08/12 08:51:28;;;;;;;9.85;6.90;;;38.20;55.40;;;;;;4969649;28;20850;-63
2021/08/12 08:53:55;;;;;;;11.07;6.45;;;37.60;54.60;;;;;;4969629;28;20511;-65
2021/08/12 08:56:23;;;;;;;11.07;7.10;;;38.70;54.50;;;;;;4984710;28;20501;-65
2021/08/12 08:58:50;;;;;;;11.48;6.10;;;39.10;54.50;;;;;;4970891;28;20438;-60
2021/08/12 09:01:16;;;;;;;10.02;6.03;;;39.60;52.80;;;;;;4970257;28;20432;-64
2021/08/12 09:03:42;;;;;;;11.85;6.07;;;39.70;53.20;;;;;;4974475;28;20428;-65
2021/08/12 09:06:08;;;;;;;10.38;5.90;;;39.70;53.30;;;;;;4975605;28;20445;-65
2021/08/12 09:08:34;;;;;;;11.10;5.50;;;38.90;53.70;;;;;;4984584;28;20799;-66
2021/08/12 09:10:59;;;;;;;9.40;6.10;;;38.80;52.50;;;;;;4970712;28;20430;-65
2021/08/12 09:13:28;;;;;;;12.25;6.13;;;38.30;54.40;;;;;;4985678;28;20391;-64
2021/08/12 09:15:54;;;;;;;11.00;6.10;;;38.40;54.60;;;;;;4976589;28;20383;-65
2021/08/12 09:18:22;;;;;;;10.30;5.93;;;39.00;52.00;;;;;;4977737;28;20926;-66
2021/08/12 09:20:50;;;;;;;9.73;5.70;;;39.40;52.30;;;;;;4984652;28;20398;-66
2021/08/12 09:23:21;;;;;;;10.73;5.80;;;39.60;51.20;;;;;;4971088;28;20428;-65
2021/08/12 09:25:47;;;;;;;9.73;5.90;;;39.70;51.10;;;;;;4978037;28;20389;-65
2021/08/12 09:28:19;;;;;;;8.02;5.20;;;39.30;51.80;;;;;;4973768;28;20392;-65
2021/08/12 09:31:04;;;;;;;8.90;5.80;;;38.70;52.00;;;;;;4976738;28;20483;-65
2021/08/12 09:33:32;;;;;;;9.10;5.80;;;38.40;51.80;;;;;;4974115;28;20415;-65
2021/08/12 09:35:59;;;;;;;11.23;6.07;;;38.00;52.90;;;;;;4969139;28;20400;-66
2021/08/12 09:38:25;;;;;;;8.07;5.40;;;38.30;52.90;;;;;;4969616;28;20416;-65
2021/08/12 09:40:56;;;;;;;9.93;5.70;;;37.90;52.00;;;;;;4968872;28;20879;-60
2021/08/12 09:43:28;;;;;;;8.40;5.40;;;37.10;54.00;;;;;;4969484;28;20712;-65
2021/08/12 09:45:53;;;;;;;12.55;6.13;;;36.80;54.40;;;;;;4971946;28;20388;-60
2021/08/12 09:48:20;;;;;;;9.53;5.37;;;37.20;53.10;;;;;;4973317;28;20751;-66
2021/08/12 09:51:00;;;;;;;8.40;5.20;;;37.20;54.00;;;;;;4972760;28;20416;-66
2021/08/12 09:53:26;;;;;;;8.68;5.40;;;37.00;54.00;;;;;;4973462;28;20523;-65
2021/08/12 09:55:52;;;;;;;10.15;6.00;;;36.80;54.80;;;;;;4972433;28;20384;-60
2021/08/12 09:58:19;;;;;;;9.13;6.00;;;36.30;56.00;;;;;;4972198;28;20926;-65
2021/08/12 10:00:47;;;;;;;11.23;6.10;;;36.20;56.60;;;;;;4976689;28;20395;-66
2021/08/12 10:03:27;;;;;;;8.75;5.72;;;35.80;56.30;;;;;;4971872;28;20403;-65
2021/08/12 10:05:56;;;;;;;11.87;5.87;;;35.80;58.30;;;;;;4972405;28;20471;-60
2021/08/12 10:08:33;;;;;;;10.80;6.15;;;36.50;56.60;;;;;;4977804;28;20398;-66
2021/08/12 10:11:15;;;;;;;10.88;6.00;;;36.80;56.00;;;;;;4991558;28;20486;-66
2021/08/12 10:13:42;;;;;;;9.25;5.45;;;37.00;55.00;;;;;;4992043;28;20482;-63
2021/08/12 10:16:08;;;;;;;9.80;5.80;;;37.30;55.00;;;;;;4991446;28;20440;-66
2021/08/12 10:18:37;;;;;;;10.48;6.20;;;37.00;55.20;;;;;;4992414;28;20426;-66
2021/08/12 10:21:03;;;;;;;10.88;5.60;;;36.70;55.00;;;;;;4990933;28;20452;-66
2021/08/12 10:23:31;;;;;;;11.25;5.85;;;36.70;55.30;;;;;;4991719;28;20398;-65
2021/08/12 10:25:58;;;;;;;10.05;5.50;;;37.60;55.00;;;;;;4991191;28;20439;-64
2021/08/12 10:28:25;;;;;;;9.30;5.80;;;37.90;53.30;;;;;;4991951;28;20397;-67
2021/08/12 10:30:52;;;;;;;11.43;6.15;;;37.90;54.30;;;;;;4991895;28;20391;-63
2021/08/12 10:33:18;;;;;;;9.00;5.70;;;38.10;52.40;;;;;;4991324;28;20398;-65
2021/08/12 10:35:45;;;;;;;9.07;6.00;;;38.40;53.40;;;;;;4991716;28;20391;-65
2021/08/12 10:38:10;;;;;;;9.55;5.53;;;37.80;52.50;;;;;;4990717;28;20480;-65
2021/08/12 10:40:42;;;;;;;9.60;5.40;;;37.70;53.30;;;;;;4991787;28;20391;-65
2021/08/12 10:43:11;;;;;;;9.57;6.00;;;37.50;54.00;;;;;;4990783;28;20453;-65
2021/08/12 10:45:37;;;;;;;11.95;6.40;;;36.90;54.70;;;;;;4991564;28;20855;-65
2021/08/12 10:48:03;;;;;;;10.07;5.82;;;36.00;55.50;;;;;;4991213;28;20456;-65
2021/08/12 10:50:34;;;;;;;9.82;5.70;;;35.90;56.20;;;;;;4973905;28;20414;-65
2021/08/12 10:53:13;;;;;;;9.55;5.80;;;35.60;55.70;;;;;;4990616;28;20393;-65
2021/08/12 10:55:38;;;;;;;9.60;7.70;;;35.40;56.50;;;;;;4973629;28;20438;-67
2021/08/12 10:58:29;;;;;;;10.57;5.60;;;35.30;56.50;;;;;;4990364;28;20839;-66
2021/08/12 11:00:55;;;;;;;13.68;6.10;;;34.60;56.40;;;;;;4979817;28;20404;-60
2021/08/12 11:03:33;;;;;;;11.50;6.40;;;34.30;56.20;;;;;;4971145;28;20784;-66
2021/08/12 11:06:05;;;;;;;9.48;6.07;;;34.40;56.80;;;;;;4970824;28;20424;-60
2021/08/12 11:08:49;;;;;;;11.30;7.03;;;34.30;57.00;;;;;;4977520;28;20402;-66
2021/08/12 11:11:26;;;;;;;11.23;6.83;;;34.40;57.10;;;;;;4989791;28;20426;-66
2021/08/12 11:13:56;;;;;;;10.80;6.70;;;34.20;57.30;;;;;;4990863;28;20398;-66
2021/08/12 11:16:24;;;;;;;12.27;5.70;;;34.20;57.60;;;;;;4990090;28;20388;-66
2021/08/12 11:18:51;;;;;;;10.55;6.05;;;34.30;58.70;;;;;;4990674;28;20438;-66
2021/08/12 11:21:32;;;;;;;10.55;6.00;;;34.50;58.50;;;;;;4989758;28;20674;-66
2021/08/12 11:24:02;;;;;;;9.60;5.40;;;34.60;57.20;;;;;;4990499;28;20422;-59
2021/08/12 11:26:48;;;;;;;9.77;6.30;;;34.40;58.70;;;;;;4990651;28;20390;-65
2021/08/12 11:29:23;;;;;;;9.50;5.90;;;34.50;57.90;;;;;;4989309;28;20386;-66
2021/08/12 11:31:48;;;;;;;14.20;6.40;;;34.60;57.60;;;;;;4990045;28;20890;-66
2021/08/12 11:34:17;;;;;;;11.40;6.43;;;34.50;58.10;;;;;;4989979;28;20398;-66
2021/08/12 11:37:04;;;;;;;9.50;6.30;;;34.70;56.50;;;;;;4989993;28;20398;-66
2021/08/12 11:39:30;;;;;;;9.73;5.77;;;34.70;57.50;;;;;;4990248;28;20866;-66
2021/08/12 11:41:56;;;;;;;10.30;6.50;;;34.40;57.20;;;;;;4990547;28;20387;-66
2021/08/12 11:44:22;;;;;;;12.10;7.20;;;34.00;58.30;;;;;;4990126;28;20398;-65
2021/08/12 11:46:48;;;;;;;11.73;6.53;;;33.40;57.60;;;;;;4972509;28;20406;-65
2021/08/12 11:49:16;;;;;;;12.50;8.50;;;33.10;57.70;;;;;;4989535;28;20448;-66
2021/08/12 11:51:42;;;;;;;11.52;9.18;;;32.90;57.00;;;;;;4989793;28;20409;-66
2021/08/12 11:54:12;;;;;;;10.57;6.40;;;32.70;57.50;;;;;;4989591;28;20387;-66
2021/08/12 11:56:38;;;;;;;12.60;10.82;;;32.40;58.30;;;;;;4990194;28;20390;-66
2021/08/12 11:59:05;;;;;;;12.27;10.97;;;32.40;60.10;;;;;;4989763;28;20405;-66
2021/08/12 12:01:33;;;;;;;13.47;11.50;;;32.60;60.50;;;;;;4974823;28;20384;-65
2021/08/12 12:04:07;;;;;;;13.48;10.32;;;32.70;59.80;;;;;;4970281;28;20395;-60
2021/08/12 12:06:37;;;;;;;13.98;11.10;;;33.00;58.50;;;;;;4970465;28;20463;-66
2021/08/12 12:09:18;;;;;;;12.80;11.40;;;33.40;59.80;;;;;;4979553;28;20394;-60
2021/08/12 12:12:03;;;;;;;13.32;11.60;;;33.50;58.30;;;;;;4989545;28;20457;-65
2021/08/12 12:14:39;;;;;;;14.10;11.98;;;33.60;58.10;;;;;;4989678;28;20394;-65
2021/08/12 12:17:15;;;;;;;14.48;11.68;;;33.60;58.40;;;;;;4988667;28;20422;-65
2021/08/12 12:20:06;;;;;;;12.32;10.88;;;33.40;57.70;;;;;;4989690;28;20395;-65
2021/08/12 12:22:33;;;;;;;11.48;10.27;;;33.50;58.10;;;;;;4989664;28;20866;-65
2021/08/12 12:25:00;;;;;;;12.50;10.75;;;33.60;58.30;;;;;;4989665;28;20409;-65
2021/08/12 12:27:27;;;;;;;12.00;10.80;;;33.70;59.00;;;;;;4989179;28;20399;-66
2021/08/12 12:30:01;;;;;;;13.20;11.90;;;33.80;56.70;;;;;;4989681;28;20405;-66
2021/08/12 12:32:27;;;;;;;11.53;10.20;;;33.80;56.30;;;;;;4988657;28;20397;-63
2021/08/12 12:34:55;;;;;;;12.23;11.03;;;33.90;56.50;;;;;;4989911;28;20386;-65
2021/08/12 12:37:22;;;;;;;13.30;10.17;;;33.40;56.80;;;;;;4988908;28;20414;-66
2021/08/12 12:39:48;;;;;;;12.77;9.95;;;33.00;57.60;;;;;;4989735;28;20676;-65